Laureles, Texas
Current Conditions -  °F | °C
As of 5:52 AM on Saturday 25 Oct 2014 (Local Time) from KHRL Reporting Station
Haze Haze  
Wind Chill: 61°   Ceiling: Unl
Heat Index: 61°   Visibility: 5mi
Dew Point: 61°   Wind: 5mph
Humidity: 100%   Direction: 290°WNW
Pressure: 30.11"   Gusts: NA
Location:  26.1784°N, 97.6678°W
Report Text: KHRL 251052Z 29004KT 5SM BR CLR 16/16 A3011 RMK AO2 SLP197 T01610161
Loading
Personal Weather Stations






























Interactive Weather Map
Tropical Storm Tracking
New forecast layout! Learn more

10-Day Weather Forecast

Advertisements
Track Severe Weather on mobile